sensor_id;sensor_type;location;lat;lon;timestamp;temperature;humidity
47845;DHT22;33605;48.822;8.796;2023-02-04T05:47:32;9.80;65.70
47845;DHT22;33605;48.822;8.796;2023-02-04T05:49:57;9.70;65.90
47845;DHT22;33605;48.822;8.796;2023-02-04T05:52:23;9.70;65.90
47845;DHT22;33605;48.822;8.796;2023-02-04T05:54:49;9.70;66.00
47845;DHT22;33605;48.822;8.796;2023-02-04T05:57:14;9.70;65.90
47845;DHT22;33605;48.822;8.796;2023-02-04T05:59:40;9.70;65.90
47845;DHT22;33605;48.822;8.796;2023-02-04T06:02:05;9.80;66.00
47845;DHT22;33605;48.822;8.796;2023-02-04T06:04:31;9.80;65.90
47845;DHT22;33605;48.822;8.796;2023-02-04T15:19:02;19.50;39.70
47845;DHT22;33605;48.822;8.796;2023-02-04T15:21:28;23.60;27.40
47845;DHT22;33605;48.822;8.796;2023-02-04T15:23:53;22.80;27.40
47845;DHT22;33605;48.822;8.796;2023-02-04T15:26:19;22.10;27.40
47845;DHT22;33605;48.822;8.796;2023-02-04T15:28:44;21.50;27.60
47845;DHT22;33605;48.822;8.796;2023-02-04T15:31:10;20.90;27.90
47845;DHT22;33605;48.822;8.796;2023-02-04T15:33:36;20.40;28.10
47845;DHT22;33605;48.822;8.796;2023-02-04T15:36:02;19.80;28.20
47845;DHT22;33605;48.822;8.796;2023-02-04T15:38:28;19.40;28.40
47845;DHT22;33605;48.822;8.796;2023-02-04T15:40:54;18.90;28.60
47845;DHT22;33605;48.822;8.796;2023-02-04T15:43:19;18.50;28.90
47845;DHT22;33605;48.822;8.796;2023-02-04T15:45:45;18.10;29.10
47845;DHT22;33605;48.822;8.796;2023-02-04T15:48:10;17.70;29.30
47845;DHT22;33605;48.822;8.796;2023-02-04T15:50:39;17.40;29.50
47845;DHT22;33605;48.822;8.796;2023-02-04T15:53:04;17.10;29.80
47845;DHT22;33605;48.822;8.796;2023-02-04T15:55:31;16.80;30.10
47845;DHT22;33605;48.822;8.796;2023-02-04T15:57:56;16.60;30.40
47845;DHT22;33605;48.822;8.796;2023-02-04T16:00:22;16.40;30.50
47845;DHT22;33605;48.822;8.796;2023-02-04T16:02:48;16.20;30.70
47845;DHT22;33605;48.822;8.796;2023-02-04T16:05:14;16.00;30.80
47845;DHT22;33605;48.822;8.796;2023-02-04T16:07:39;15.80;31.00
47845;DHT22;33605;48.822;8.796;2023-02-04T16:10:05;15.60;31.10
47845;DHT22;33605;48.822;8.796;2023-02-04T16:12:31;15.40;31.20
47845;DHT22;33605;48.822;8.796;2023-02-04T16:14:56;15.30;31.60
47845;DHT22;33605;48.822;8.796;2023-02-04T16:17:22;15.10;31.80
47845;DHT22;33605;48.822;8.796;2023-02-04T16:19:47;15.00;31.80
47845;DHT22;33605;48.822;8.796;2023-02-04T16:22:13;14.80;31.80
47845;DHT22;33605;48.822;8.796;2023-02-04T16:24:39;14.70;31.90
47845;DHT22;33605;48.822;8.796;2023-02-04T16:27:04;14.50;32.00
47845;DHT22;33605;48.822;8.796;2023-02-04T16:29:30;14.40;32.20
47845;DHT22;33605;48.822;8.796;2023-02-04T16:31:55;14.20;32.30
47845;DHT22;33605;48.822;8.796;2023-02-04T16:34:22;14.10;32.60
47845;DHT22;33605;48.822;8.796;2023-02-04T16:36:48;14.00;33.00
47845;DHT22;33605;48.822;8.796;2023-02-04T16:39:14;13.90;33.20
47845;DHT22;33605;48.822;8.796;2023-02-04T16:41:40;13.80;33.30
47845;DHT22;33605;48.822;8.796;2023-02-04T16:44:05;13.60;33.30
47845;DHT22;33605;48.822;8.796;2023-02-04T16:46:31;13.50;33.50
47845;DHT22;33605;48.822;8.796;2023-02-04T16:48:58;13.40;33.70
47845;DHT22;33605;48.822;8.796;2023-02-04T16:51:24;13.30;33.90
47845;DHT22;33605;48.822;8.796;2023-02-04T16:53:50;13.20;34.20
47845;DHT22;33605;48.822;8.796;2023-02-04T16:56:15;13.00;34.10
47845;DHT22;33605;48.822;8.796;2023-02-04T16:58:41;13.00;34.70
47845;DHT22;33605;48.822;8.796;2023-02-04T17:01:07;12.80;34.90
47845;DHT22;33605;48.822;8.796;2023-02-04T17:03:32;12.70;35.20
47845;DHT22;33605;48.822;8.796;2023-02-04T17:05:59;12.60;35.30
47845;DHT22;33605;48.822;8.796;2023-02-04T17:08:24;12.50;35.50
47845;DHT22;33605;48.822;8.796;2023-02-04T17:10:50;12.40;35.80
47845;DHT22;33605;48.822;8.796;2023-02-04T17:16:00;12.10;35.80
47845;DHT22;33605;48.822;8.796;2023-02-04T17:18:27;12.00;37.10
47845;DHT22;33605;48.822;8.796;2023-02-04T17:20:53;11.90;36.70
47845;DHT22;33605;48.822;8.796;2023-02-04T17:23:18;11.80;36.80
47845;DHT22;33605;48.822;8.796;2023-02-04T17:25:44;11.70;36.90
47845;DHT22;33605;48.822;8.796;2023-02-04T17:28:09;11.50;36.90
47845;DHT22;33605;48.822;8.796;2023-02-04T17:30:35;11.40;37.00
47845;DHT22;33605;48.822;8.796;2023-02-04T17:33:01;11.30;37.20
47845;DHT22;33605;48.822;8.796;2023-02-04T17:35:26;11.20;37.40
47845;DHT22;33605;48.822;8.796;2023-02-04T17:37:52;11.10;37.60
47845;DHT22;33605;48.822;8.796;2023-02-04T17:40:18;11.00;37.80
47845;DHT22;33605;48.822;8.796;2023-02-04T17:42:44;10.90;38.10
47845;DHT22;33605;48.822;8.796;2023-02-04T17:45:10;10.70;38.30
47845;DHT22;33605;48.822;8.796;2023-02-04T17:47:39;10.60;38.50
47845;DHT22;33605;48.822;8.796;2023-02-04T17:50:07;10.50;40.80
47845;DHT22;33605;48.822;8.796;2023-02-04T17:52:34;10.30;38.60
47845;DHT22;33605;48.822;8.796;2023-02-04T17:55:00;10.20;38.80
47845;DHT22;33605;48.822;8.796;2023-02-04T17:57:26;10.10;38.90
47845;DHT22;33605;48.822;8.796;2023-02-04T17:59:52;10.00;38.90
47845;DHT22;33605;48.822;8.796;2023-02-04T18:02:26;9.90;40.30
47845;DHT22;33605;48.822;8.796;2023-02-04T18:04:58;9.90;40.70
47845;DHT22;33605;48.822;8.796;2023-02-04T18:07:24;9.70;40.70
47845;DHT22;33605;48.822;8.796;2023-02-04T18:09:49;9.70;40.70
47845;DHT22;33605;48.822;8.796;2023-02-04T18:12:17;9.60;40.80
47845;DHT22;33605;48.822;8.796;2023-02-04T18:14:43;9.50;41.00
47845;DHT22;33605;48.822;8.796;2023-02-04T18:17:13;9.50;41.30
47845;DHT22;33605;48.822;8.796;2023-02-04T18:19:40;9.40;41.40
47845;DHT22;33605;48.822;8.796;2023-02-04T18:22:12;9.30;41.50
47845;DHT22;33605;48.822;8.796;2023-02-04T18:24:39;9.20;41.70
47845;DHT22;33605;48.822;8.796;2023-02-04T18:29:43;9.10;42.00
47845;DHT22;33605;48.822;8.796;2023-02-04T18:34:47;8.90;42.10
47845;DHT22;33605;48.822;8.796;2023-02-04T18:37:29;8.80;42.30
47845;DHT22;33605;48.822;8.796;2023-02-04T18:42:37;8.70;42.70
47845;DHT22;33605;48.822;8.796;2023-02-04T18:47:47;8.60;43.10
47845;DHT22;33605;48.822;8.796;2023-02-04T18:50:23;8.50;43.00
47845;DHT22;33605;48.822;8.796;2023-02-04T18:52:52;8.40;43.20
47845;DHT22;33605;48.822;8.796;2023-02-04T18:55:38;8.30;43.20
47845;DHT22;33605;48.822;8.796;2023-02-04T18:58:36;8.30;43.50
47845;DHT22;33605;48.822;8.796;2023-02-04T19:03:44;8.10;43.40
47845;DHT22;33605;48.822;8.796;2023-02-04T19:06:35;8.10;43.60
47845;DHT22;33605;48.822;8.796;2023-02-04T19:11:51;8.00;43.80
47845;DHT22;33605;48.822;8.796;2023-02-04T19:14:38;7.90;43.80
47845;DHT22;33605;48.822;8.796;2023-02-04T19:20:00;7.80;44.10
47845;DHT22;33605;48.822;8.796;2023-02-04T19:22:47;7.80;44.30
47845;DHT22;33605;48.822;8.796;2023-02-04T19:27:50;7.70;44.60
47845;DHT22;33605;48.822;8.796;2023-02-04T19:32:54;7.60;44.90
47845;DHT22;33605;48.822;8.796;2023-02-04T19:35:26;7.50;44.90
47845;DHT22;33605;48.822;8.796;2023-02-04T19:37:59;7.50;45.00
47845;DHT22;33605;48.822;8.796;2023-02-04T19:40:30;7.40;45.10
47845;DHT22;33605;48.822;8.796;2023-02-04T19:45:32;7.30;45.10
47845;DHT22;33605;48.822;8.796;2023-02-04T19:47:58;7.30;45.10
47845;DHT22;33605;48.822;8.796;2023-02-04T19:50:31;7.20;45.10
47845;DHT22;33605;48.822;8.796;2023-02-04T19:53:20;7.20;45.40
47845;DHT22;33605;48.822;8.796;2023-02-04T19:55:50;7.10;45.40
47845;DHT22;33605;48.822;8.796;2023-02-04T19:58:18;7.10;45.50
47845;DHT22;33605;48.822;8.796;2023-02-04T20:00:58;7.10;45.60
47845;DHT22;33605;48.822;8.796;2023-02-04T20:06:13;7.00;45.90
47845;DHT22;33605;48.822;8.796;2023-02-04T20:09:31;7.00;46.30
47845;DHT22;33605;48.822;8.796;2023-02-04T20:16:55;7.00;47.30
47845;DHT22;33605;48.822;8.796;2023-02-04T20:22:22;7.00;47.60
47845;DHT22;33605;48.822;8.796;2023-02-04T20:24:50;7.00;47.60
47845;DHT22;33605;48.822;8.796;2023-02-04T20:27:35;7.00;47.60
47845;DHT22;33605;48.822;8.796;2023-02-04T20:32:37;7.00;47.70
47845;DHT22;33605;48.822;8.796;2023-02-04T20:37:32;7.00;47.70
47845;DHT22;33605;48.822;8.796;2023-02-04T20:39:58;7.00;47.80
47845;DHT22;33605;48.822;8.796;2023-02-04T20:42:32;7.00;47.80
47845;DHT22;33605;48.822;8.796;2023-02-04T20:45:08;7.00;47.90
47845;DHT22;33605;48.822;8.796;2023-02-04T20:47:36;7.00;48.00
47845;DHT22;33605;48.822;8.796;2023-02-04T20:50:36;7.00;48.00
47845;DHT22;33605;48.822;8.796;2023-02-04T20:53:14;7.00;48.20
47845;DHT22;33605;48.822;8.796;2023-02-04T20:55:40;7.00;48.30
47845;DHT22;33605;48.822;8.796;2023-02-04T20:58:17;7.00;48.40
47845;DHT22;33605;48.822;8.796;2023-02-04T21:00:45;7.00;48.60
47845;DHT22;33605;48.822;8.796;2023-02-04T21:05:58;6.90;48.80
47845;DHT22;33605;48.822;8.796;2023-02-04T21:10:53;6.90;48.90
47845;DHT22;33605;48.822;8.796;2023-02-04T21:13:19;6.90;48.90
47845;DHT22;33605;48.822;8.796;2023-02-04T21:15:44;6.90;49.00
47845;DHT22;33605;48.822;8.796;2023-02-04T21:18:10;6.80;48.90
47845;DHT22;33605;48.822;8.796;2023-02-04T21:20:35;6.80;49.60
47845;DHT22;33605;48.822;8.796;2023-02-04T21:23:01;6.80;49.10
47845;DHT22;33605;48.822;8.796;2023-02-04T21:25:28;6.80;49.20
47845;DHT22;33605;48.822;8.796;2023-02-04T21:27:53;6.80;49.40
47845;DHT22;33605;48.822;8.796;2023-02-04T21:30:19;6.80;49.40
47845;DHT22;33605;48.822;8.796;2023-02-04T21:32:47;6.80;49.60
47845;DHT22;33605;48.822;8.796;2023-02-04T21:35:13;6.80;49.70
47845;DHT22;33605;48.822;8.796;2023-02-04T21:37:42;6.80;49.90
47845;DHT22;33605;48.822;8.796;2023-02-04T21:40:08;6.90;50.10
47845;DHT22;33605;48.822;8.796;2023-02-04T21:42:34;6.90;50.30
47845;DHT22;33605;48.822;8.796;2023-02-04T21:44:59;6.90;50.40
47845;DHT22;33605;48.822;8.796;2023-02-04T21:47:25;6.90;50.60
47845;DHT22;33605;48.822;8.796;2023-02-04T21:49:51;6.80;51.30
47845;DHT22;33605;48.822;8.796;2023-02-04T21:52:17;7.00;51.00
47845;DHT22;33605;48.822;8.796;2023-02-04T21:54:43;7.00;51.10
47845;DHT22;33605;48.822;8.796;2023-02-04T21:57:08;7.00;51.10
47845;DHT22;33605;48.822;8.796;2023-02-04T21:59:34;7.00;51.10
47845;DHT22;33605;48.822;8.796;2023-02-04T22:02:00;7.00;51.10
47845;DHT22;33605;48.822;8.796;2023-02-04T22:04:25;7.00;51.10
47845;DHT22;33605;48.822;8.796;2023-02-04T22:06:51;7.00;51.00
47845;DHT22;33605;48.822;8.796;2023-02-04T22:09:16;7.00;50.90
47845;DHT22;33605;48.822;8.796;2023-02-04T22:11:42;7.00;50.90
47845;DHT22;33605;48.822;8.796;2023-02-04T22:14:08;7.00;50.90
47845;DHT22;33605;48.822;8.796;2023-02-04T22:16:52;7.00;50.90
47845;DHT22;33605;48.822;8.796;2023-02-04T22:19:17;6.90;50.90
47845;DHT22;33605;48.822;8.796;2023-02-04T22:21:44;6.90;50.90
47845;DHT22;33605;48.822;8.796;2023-02-04T22:24:09;6.90;51.00
47845;DHT22;33605;48.822;8.796;2023-02-04T22:26:35;6.80;51.00
47845;DHT22;33605;48.822;8.796;2023-02-04T22:29:00;6.80;51.10
47845;DHT22;33605;48.822;8.796;2023-02-04T22:31:26;6.80;51.20
47845;DHT22;33605;48.822;8.796;2023-02-04T22:33:52;6.90;51.30
47845;DHT22;33605;48.822;8.796;2023-02-04T22:36:17;6.80;51.20
47845;DHT22;33605;48.822;8.796;2023-02-04T22:38:43;6.80;51.20
47845;DHT22;33605;48.822;8.796;2023-02-04T22:41:08;6.80;51.20
47845;DHT22;33605;48.822;8.796;2023-02-04T22:43:34;6.80;51.20
47845;DHT22;33605;48.822;8.796;2023-02-04T22:46:00;6.80;51.30
47845;DHT22;33605;48.822;8.796;2023-02-04T22:48:25;6.80;51.30
47845;DHT22;33605;48.822;8.796;2023-02-04T22:50:51;6.80;51.20
47845;DHT22;33605;48.822;8.796;2023-02-04T22:53:16;6.80;51.30
47845;DHT22;33605;48.822;8.796;2023-02-04T22:55:42;6.80;51.20
47845;DHT22;33605;48.822;8.796;2023-02-04T22:58:08;6.80;51.20
47845;DHT22;33605;48.822;8.796;2023-02-04T23:00:33;6.80;51.30
47845;DHT22;33605;48.822;8.796;2023-02-04T23:02:59;6.70;51.20
47845;DHT22;33605;48.822;8.796;2023-02-04T23:05:24;6.80;51.30
47845;DHT22;33605;48.822;8.796;2023-02-04T23:07:50;6.70;51.30
47845;DHT22;33605;48.822;8.796;2023-02-04T23:10:15;6.70;51.30
47845;DHT22;33605;48.822;8.796;2023-02-04T23:12:41;6.70;51.30
47845;DHT22;33605;48.822;8.796;2023-02-04T23:15:09;6.70;51.40
47845;DHT22;33605;48.822;8.796;2023-02-04T23:17:34;6.70;51.50
47845;DHT22;33605;48.822;8.796;2023-02-04T23:20:00;6.60;51.40
47845;DHT22;33605;48.822;8.796;2023-02-04T23:22:26;6.70;51.60
47845;DHT22;33605;48.822;8.796;2023-02-04T23:24:52;6.70;51.70
47845;DHT22;33605;48.822;8.796;2023-02-04T23:27:17;6.60;51.80
47845;DHT22;33605;48.822;8.796;2023-02-04T23:29:43;6.60;51.80
47845;DHT22;33605;48.822;8.796;2023-02-04T23:32:09;6.60;51.90
47845;DHT22;33605;48.822;8.796;2023-02-04T23:34:34;6.60;52.60
47845;DHT22;33605;48.822;8.796;2023-02-04T23:37:00;6.60;51.90
47845;DHT22;33605;48.822;8.796;2023-02-04T23:39:26;6.70;52.00
47845;DHT22;33605;48.822;8.796;2023-02-04T23:41:52;6.70;52.00
47845;DHT22;33605;48.822;8.796;2023-02-04T23:44:17;6.70;52.00
47845;DHT22;33605;48.822;8.796;2023-02-04T23:46:43;6.70;52.00
47845;DHT22;33605;48.822;8.796;2023-02-04T23:49:09;6.70;52.10
47845;DHT22;33605;48.822;8.796;2023-02-04T23:51:34;6.70;52.10
47845;DHT22;33605;48.822;8.796;2023-02-04T23:54:00;6.70;52.10
47845;DHT22;33605;48.822;8.796;2023-02-04T23:56:26;6.70;52.10
47845;DHT22;33605;48.822;8.796;2023-02-04T23:58:52;6.70;52.10
